Time;durP1;ratioP1;P1;durP2;ratioP2;P2;SDS_P1;SDS_P2;PMS_P1;PMS_P2;Temp;Humidity;BMP_temperature;BMP_pressure;BME280_temperature;BME280_humidity;BME280_pressure;Samples;Min_cycle;Max_cycle;Signal;HPM_P1;HPM_P2
2021/05/11 00:02:08;;;;;;;36.67;5.97;;;;;;;;;;5065602;28;20723;-62
2021/05/11 00:04:35;;;;;;;29.75;5.93;;;;;;;;;;5068651;28;20460;-62
2021/05/11 00:07:02;;;;;;;30.13;7.07;;;;;;;;;;5072015;28;20029;-61
2021/05/11 00:09:29;;;;;;;27.10;5.43;;;;;;;;;;5071837;28;20058;-62
2021/05/11 00:11:56;;;;;;;29.15;5.60;;;;;;;;;;5069729;28;20028;-63
2021/05/11 00:14:23;;;;;;;27.33;5.93;;;;;;;;;;5070240;28;20476;-62
2021/05/11 00:16:50;;;;;;;34.65;6.13;;;;;;;;;;5069396;28;20039;-62
2021/05/11 00:19:17;;;;;;;22.55;5.75;;;;;;;;;;5063964;28;20033;-63
2021/05/11 00:21:45;;;;;;;39.35;6.32;;;;;;;;;;5060892;28;20036;-64
2021/05/11 00:24:12;;;;;;;35.13;6.82;;;;;;;;;;5057802;28;20473;-63
2021/05/11 00:26:39;;;;;;;41.42;7.63;;;;;;;;;;5061124;28;20095;-65
2021/05/11 00:29:06;;;;;;;34.45;7.78;;;;;;;;;;5057848;28;20052;-65
2021/05/11 00:31:33;;;;;;;49.22;13.80;;;;;;;;;;5070722;28;20483;-64
2021/05/11 00:34:00;;;;;;;36.38;15.77;;;;;;;;;;5072616;28;20029;-62
2021/05/11 00:36:27;;;;;;;53.67;21.17;;;;;;;;;;5050679;28;20020;-64
2021/05/11 00:38:54;;;;;;;51.35;21.15;;;;;;;;;;5051955;28;20040;-61
2021/05/11 00:41:22;;;;;;;62.92;22.77;;;;;;;;;;5071889;28;20074;-66
2021/05/11 00:43:49;;;;;;;65.13;25.05;;;;;;;;;;5068401;28;20629;-64
2021/05/11 00:46:16;;;;;;;78.20;29.48;;;;;;;;;;5069294;28;20028;-63
2021/05/11 00:48:43;;;;;;;77.13;28.10;;;;;;;;;;5072611;28;20016;-64
2021/05/11 00:51:10;;;;;;;88.82;25.90;;;;;;;;;;5070828;28;20099;-65
2021/05/11 00:53:38;;;;;;;78.70;27.38;;;;;;;;;;5073417;28;20019;-62
2021/05/11 00:56:06;;;;;;;73.32;26.35;;;;;;;;;;5065972;28;20115;-62
2021/05/11 00:58:34;;;;;;;66.20;27.05;;;;;;;;;;5067446;28;20036;-64
2021/05/11 01:01:01;;;;;;;63.78;26.67;;;;;;;;;;5072617;28;20029;-64
2021/05/11 01:03:28;;;;;;;60.05;26.33;;;;;;;;;;5066483;28;20025;-64
2021/05/11 01:05:55;;;;;;;61.80;27.35;;;;;;;;;;5068022;28;20063;-65
2021/05/11 01:08:22;;;;;;;61.95;26.38;;;;;;;;;;5066326;28;20396;-66
2021/05/11 01:10:49;;;;;;;70.45;26.98;;;;;;;;;;5065727;28;20021;-64
2021/05/11 01:13:17;;;;;;;64.55;24.30;;;;;;;;;;5063452;28;20023;-64
2021/05/11 01:15:48;;;;;;;59.50;25.13;;;;;;;;;;5058802;28;20029;-64
2021/05/11 01:18:25;;;;;;;54.33;23.90;;;;;;;;;;5060857;28;20553;-64
2021/05/11 01:20:54;;;;;;;61.85;23.58;;;;;;;;;;5071463;28;20377;-66
2021/05/11 01:23:45;;;;;;;61.78;22.38;;;;;;;;;;5071338;28;20124;-66
2021/05/11 01:26:21;;;;;;;64.53;21.40;;;;;;;;;;5062648;28;20037;-65
2021/05/11 01:29:04;;;;;;;59.40;22.60;;;;;;;;;;5061743;28;20505;-65
2021/05/11 01:31:52;;;;;;;63.63;21.25;;;;;;;;;;5061283;28;20390;-66
2021/05/11 01:50:55;;;;;;;48.78;19.75;;;;;;;;;;5062948;28;20563;-66
2021/05/11 02:23:32;;;;;;;44.33;17.13;;;;;;;;;;5072421;28;20419;-66
2021/05/11 02:26:00;;;;;;;41.67;17.25;;;;;;;;;;5071965;28;20013;-66
2021/05/11 02:28:27;;;;;;;34.70;16.08;;;;;;;;;;5072613;28;20135;-66
2021/05/11 02:30:54;;;;;;;41.58;15.90;;;;;;;;;;5072092;28;20470;-65
2021/05/11 02:33:21;;;;;;;41.97;17.33;;;;;;;;;;5072254;28;20453;-66
2021/05/11 02:35:48;;;;;;;41.35;16.27;;;;;;;;;;5071474;28;20108;-65
2021/05/11 02:38:16;;;;;;;41.65;17.00;;;;;;;;;;5072541;28;20461;-67
2021/05/11 02:40:43;;;;;;;36.72;15.95;;;;;;;;;;5071912;28;20020;-67
2021/05/11 02:43:17;;;;;;;38.40;16.17;;;;;;;;;;5072270;28;20032;-67
2021/05/11 02:45:44;;;;;;;33.80;14.07;;;;;;;;;;5071706;28;20113;-64
2021/05/11 02:48:11;;;;;;;32.80;15.63;;;;;;;;;;5072571;28;20028;-65
2021/05/11 02:50:38;;;;;;;37.70;14.43;;;;;;;;;;5070727;28;20113;-66
2021/05/11 02:53:05;;;;;;;37.03;14.18;;;;;;;;;;5061258;28;20032;-65
2021/05/11 02:55:32;;;;;;;39.60;15.23;;;;;;;;;;5060149;28;20040;-64
2021/05/11 02:57:59;;;;;;;38.53;15.73;;;;;;;;;;5061118;28;20036;-66
2021/05/11 03:00:27;;;;;;;34.53;14.90;;;;;;;;;;5069075;28;20070;-65
2021/05/11 03:02:55;;;;;;;31.30;14.35;;;;;;;;;;5060350;28;20021;-65
2021/05/11 03:05:22;;;;;;;31.70;14.20;;;;;;;;;;5053468;28;20033;-65
2021/05/11 03:07:49;;;;;;;39.17;15.20;;;;;;;;;;5051215;28;20147;-66
2021/05/11 03:10:17;;;;;;;34.50;13.90;;;;;;;;;;5052393;28;20075;-65
2021/05/11 03:12:44;;;;;;;35.53;14.10;;;;;;;;;;5066931;28;20115;-63
2021/05/11 03:15:12;;;;;;;37.25;14.50;;;;;;;;;;5051881;28;20100;-65
2021/05/11 03:17:39;;;;;;;30.38;14.23;;;;;;;;;;5051717;28;20059;-64
2021/05/11 03:20:07;;;;;;;33.85;15.32;;;;;;;;;;5051901;28;20112;-66
2021/05/11 03:22:34;;;;;;;30.85;13.07;;;;;;;;;;5051422;28;20531;-66
2021/05/11 03:25:01;;;;;;;31.83;13.43;;;;;;;;;;5051918;28;20060;-66
2021/05/11 03:27:28;;;;;;;29.75;14.02;;;;;;;;;;5053743;28;20087;-64
2021/05/11 03:29:55;;;;;;;31.08;13.73;;;;;;;;;;5055591;28;20100;-65
2021/05/11 03:32:22;;;;;;;35.15;13.73;;;;;;;;;;5056248;28;20492;-65
2021/05/11 03:34:49;;;;;;;27.27;12.73;;;;;;;;;;5055420;28;20071;-64
2021/05/11 03:37:16;;;;;;;26.65;13.02;;;;;;;;;;5056001;28;20112;-65
2021/05/11 03:39:44;;;;;;;25.50;12.25;;;;;;;;;;5055731;28;20060;-65
2021/05/11 03:42:35;;;;;;;31.27;13.10;;;;;;;;;;5056141;28;20080;-64
2021/05/11 03:45:05;;;;;;;30.35;13.13;;;;;;;;;;5055478;28;20388;-65
2021/05/11 03:47:44;;;;;;;29.33;13.10;;;;;;;;;;5055864;28;20031;-65
2021/05/11 03:50:14;;;;;;;24.80;12.32;;;;;;;;;;5055301;28;20086;-64
2021/05/11 03:52:42;;;;;;;29.58;12.27;;;;;;;;;;5055701;28;20025;-65
2021/05/11 03:55:09;;;;;;;28.75;12.52;;;;;;;;;;5055028;28;20017;-65
2021/05/11 03:57:36;;;;;;;29.63;12.13;;;;;;;;;;5055638;28;20032;-65
2021/05/11 04:00:04;;;;;;;31.35;11.73;;;;;;;;;;5055212;28;20088;-64
2021/05/11 04:02:31;;;;;;;25.45;12.05;;;;;;;;;;5055724;28;20059;-64
2021/05/11 04:04:58;;;;;;;27.50;11.73;;;;;;;;;;5054871;28;20074;-65
2021/05/11 04:07:25;;;;;;;28.52;12.40;;;;;;;;;;5055397;28;20021;-65
2021/05/11 04:09:56;;;;;;;29.80;10.77;;;;;;;;;;5053784;28;20162;-65
2021/05/11 04:17:37;;;;;;;27.50;11.35;;;;;;;;;;5055441;28;20040;-67
2021/05/11 04:20:04;;;;;;;24.98;11.30;;;;;;;;;;5054884;28;20500;-66
2021/05/11 04:22:31;;;;;;;20.35;10.07;;;;;;;;;;5054910;28;20057;-64
2021/05/11 04:24:58;;;;;;;24.55;9.68;;;;;;;;;;5069860;28;20032;-65
2021/05/11 04:27:25;;;;;;;26.48;10.18;;;;;;;;;;5055298;28;20108;-66
2021/05/11 04:29:56;;;;;;;22.92;10.65;;;;;;;;;;5055172;28;20025;-65
2021/05/11 04:32:23;;;;;;;23.37;10.60;;;;;;;;;;5054715;28;20035;-64
2021/05/11 04:34:50;;;;;;;22.00;10.65;;;;;;;;;;5054619;28;20040;-64
2021/05/11 04:37:17;;;;;;;16.95;9.57;;;;;;;;;;5054772;28;20057;-64
2021/05/11 04:39:44;;;;;;;20.00;9.60;;;;;;;;;;5054830;28;20025;-64
2021/05/11 04:42:11;;;;;;;22.25;10.23;;;;;;;;;;5054490;28;20079;-64
2021/05/11 04:44:39;;;;;;;19.35;9.75;;;;;;;;;;5054820;28;20036;-64
2021/05/11 04:47:20;;;;;;;20.20;8.88;;;;;;;;;;5054032;28;20104;-66
2021/05/11 04:49:47;;;;;;;17.88;9.05;;;;;;;;;;5054474;28;20021;-64
2021/05/11 04:52:14;;;;;;;21.15;9.38;;;;;;;;;;5054302;28;20121;-64
2021/05/11 04:54:41;;;;;;;23.33;9.57;;;;;;;;;;5054722;28;20071;-64
2021/05/11 04:57:08;;;;;;;21.92;9.40;;;;;;;;;;5053869;28;20017;-65
2021/05/11 04:59:35;;;;;;;20.75;9.73;;;;;;;;;;5054498;28;20029;-65
2021/05/11 05:02:03;;;;;;;18.90;9.20;;;;;;;;;;5054242;28;20465;-65
2021/05/11 05:04:33;;;;;;;19.58;9.20;;;;;;;;;;5054231;28;20484;-65
2021/05/11 05:07:00;;;;;;;22.33;9.55;;;;;;;;;;5053730;28;20032;-65
2021/05/11 05:09:27;;;;;;;24.35;9.52;;;;;;;;;;5069919;28;20442;-66
2021/05/11 05:11:54;;;;;;;19.38;8.55;;;;;;;;;;5053819;28;20029;-66
2021/05/11 05:14:21;;;;;;;17.25;9.05;;;;;;;;;;5053010;28;20066;-64
2021/05/11 05:16:48;;;;;;;21.42;8.82;;;;;;;;;;5069424;28;20077;-65
2021/05/11 05:19:15;;;;;;;25.00;9.52;;;;;;;;;;5052298;28;20033;-64
2021/05/11 05:21:42;;;;;;;18.55;8.95;;;;;;;;;;5053907;28;20025;-65
2021/05/11 05:24:13;;;;;;;18.52;8.77;;;;;;;;;;5053622;28;20025;-65
2021/05/11 05:26:40;;;;;;;20.90;9.35;;;;;;;;;;5053732;28;20032;-65
2021/05/11 05:29:09;;;;;;;16.42;8.95;;;;;;;;;;5053419;28;20911;-65
2021/05/11 05:31:36;;;;;;;19.10;8.60;;;;;;;;;;5054059;28;20100;-66
2021/05/11 05:34:03;;;;;;;16.15;8.20;;;;;;;;;;5053541;28;20086;-64
2021/05/11 05:36:30;;;;;;;17.52;7.93;;;;;;;;;;5053663;28;20017;-64
2021/05/11 05:38:57;;;;;;;18.08;8.30;;;;;;;;;;5053294;28;20108;-65
2021/05/11 05:41:24;;;;;;;17.30;7.80;;;;;;;;;;5053864;28;20017;-65
2021/05/11 05:43:52;;;;;;;16.30;8.15;;;;;;;;;;5053096;28;20029;-65
2021/05/11 05:46:19;;;;;;;16.25;7.78;;;;;;;;;;5053257;28;20021;-65
2021/05/11 05:48:47;;;;;;;16.77;8.27;;;;;;;;;;5053062;28;20020;-63
2021/05/11 05:51:15;;;;;;;15.63;8.25;;;;;;;;;;5053131;28;20025;-63
2021/05/11 05:53:43;;;;;;;15.02;7.80;;;;;;;;;;5052993;28;20028;-64
2021/05/11 05:56:10;;;;;;;15.80;7.65;;;;;;;;;;5053402;28;20028;-64
2021/05/11 05:58:37;;;;;;;17.45;8.05;;;;;;;;;;5053030;28;20029;-63
2021/05/11 06:01:08;;;;;;;18.55;8.65;;;;;;;;;;5053001;28;20025;-64
2021/05/11 06:06:08;;;;;;;19.42;7.53;;;;;;;;;;5052707;28;20075;-64
2021/05/11 06:08:36;;;;;;;16.77;7.20;;;;;;;;;;5053110;28;20029;-65
2021/05/11 06:13:42;;;;;;;15.48;7.50;;;;;;;;;;5053213;28;20466;-65
2021/05/11 06:18:55;;;;;;;15.60;7.20;;;;;;;;;;5052833;28;20515;-64
2021/05/11 06:21:22;;;;;;;13.70;7.30;;;;;;;;;;5051092;28;20032;-65
2021/05/11 06:23:49;;;;;;;13.25;7.32;;;;;;;;;;5053075;28;20036;-64
2021/05/11 06:26:16;;;;;;;15.90;7.53;;;;;;;;;;5052206;28;20021;-64
2021/05/11 06:28:44;;;;;;;15.70;7.25;;;;;;;;;;5052426;28;20024;-66
2021/05/11 06:31:11;;;;;;;14.63;6.80;;;;;;;;;;5052410;28;20028;-66
2021/05/11 06:33:38;;;;;;;15.68;7.07;;;;;;;;;;5052920;28;20024;-65
2021/05/11 06:36:05;;;;;;;12.07;6.68;;;;;;;;;;5052211;28;20473;-64
2021/05/11 06:38:32;;;;;;;12.95;6.65;;;;;;;;;;5052466;28;20036;-65
2021/05/11 06:41:00;;;;;;;14.13;7.15;;;;;;;;;;5051797;28;20786;-65
2021/05/11 06:43:30;;;;;;;12.95;6.10;;;;;;;;;;5052510;28;20820;-65
2021/05/11 06:53:54;;;;;;;11.50;6.15;;;;;;;;;;5052615;28;20056;-65
2021/05/11 06:56:22;;;;;;;11.80;6.20;;;;;;;;;;5052074;28;20082;-64
2021/05/11 06:58:49;;;;;;;12.55;6.20;;;;;;;;;;5051880;28;20041;-64
2021/05/11 07:01:21;;;;;;;11.80;6.20;;;;;;;;;;5051897;28;20021;-65
2021/05/11 07:03:48;;;;;;;11.27;6.97;;;;;;;;;;5051821;28;20029;-66
2021/05/11 07:06:17;;;;;;;12.98;6.60;;;;;;;;;;5052108;28;20125;-65
2021/05/11 07:08:56;;;;;;;12.43;5.75;;;;;;;;;;5051501;28;20025;-64
2021/05/11 07:13:05;;;;;;;15.02;6.60;;;;;;;;;;5052406;28;20028;-65
2021/05/11 07:14:13;;;;;;;12.52;6.40;;;;;;;;;;5051348;28;20069;-66
2021/05/11 07:16:40;;;;;;;12.68;6.50;;;;;;;;;;5051137;28;20025;-64
2021/05/11 07:19:07;;;;;;;13.07;6.20;;;;;;;;;;5051260;28;20395;-65
2021/05/11 07:21:34;;;;;;;14.45;6.85;;;;;;;;;;5052025;28;20460;-64
2021/05/11 07:24:03;;;;;;;9.93;5.93;;;;;;;;;;5051624;28;20378;-64
2021/05/11 07:26:31;;;;;;;10.32;5.97;;;;;;;;;;5051987;28;20018;-65
2021/05/11 07:29:02;;;;;;;9.77;5.72;;;;;;;;;;5051659;28;20028;-64
2021/05/11 07:31:29;;;;;;;11.00;5.80;;;;;;;;;;5051995;28;20047;-64
2021/05/11 07:33:57;;;;;;;10.75;5.78;;;;;;;;;;5052170;28;20104;-65
2021/05/11 07:36:25;;;;;;;9.45;5.38;;;;;;;;;;5051603;28;20086;-64
2021/05/11 07:38:52;;;;;;;13.18;6.35;;;;;;;;;;5051545;28;20171;-65
2021/05/11 07:41:20;;;;;;;9.88;5.40;;;;;;;;;;5050188;28;20021;-64
2021/05/11 07:43:54;;;;;;;12.00;6.05;;;;;;;;;;5051864;28;20025;-64
2021/05/11 08:10:21;;;;;;;9.13;4.63;;;;;;;;;;5071730;28;20036;-65
2021/05/11 08:15:35;;;;;;;8.65;4.95;;;;;;;;;;5075640;28;20078;-65
2021/05/11 08:28:47;;;;;;;9.80;4.32;;;;;;;;;;5075018;28;20027;-65
2021/05/11 08:31:14;;;;;;;12.15;5.07;;;;;;;;;;5073855;28;20044;-66
2021/05/11 08:33:41;;;;;;;8.88;4.20;;;;;;;;;;5073258;28;20060;-67
2021/05/11 08:36:08;;;;;;;6.68;4.32;;;;;;;;;;5075136;28;20025;-65
2021/05/11 08:38:35;;;;;;;9.40;4.60;;;;;;;;;;5074127;28;20476;-65
2021/05/11 08:41:02;;;;;;;8.60;4.50;;;;;;;;;;5074810;28;20020;-65
2021/05/11 08:43:31;;;;;;;7.28;4.05;;;;;;;;;;5074473;28;20020;-65
2021/05/11 08:45:58;;;;;;;7.03;3.92;;;;;;;;;;5074982;28;20024;-64
2021/05/11 08:48:25;;;;;;;8.38;4.50;;;;;;;;;;5074437;28;20115;-65
2021/05/11 08:51:14;;;;;;;8.10;4.57;;;;;;;;;;5074506;28;20103;-64
2021/05/11 09:05:00;;;;;;;6.35;3.75;;;;;;;;;;5074256;28;20089;-64
2021/05/11 09:24:17;;;;;;;8.20;3.70;;;;;;;;;;5073639;28;20640;-63
2021/05/11 09:32:16;;;;;;;7.53;4.07;;;;;;;;;;5073915;28;20159;-64
2021/05/11 09:59:43;;;;;;;6.72;3.72;;;;;;;;;;5073766;28;20037;-65
2021/05/11 10:11:12;;;;;;;6.97;3.25;;;;;;;;;;5052660;28;20128;-64
2021/05/11 10:49:32;;;;;;;4.95;3.13;;;;;;;;;;5057083;28;20041;-63
2021/05/11 10:52:18;;;;;;;3.92;2.30;;;;;;;;;;5063500;28;20029;-64
2021/05/11 10:54:52;;;;;;;6.05;2.90;;;;;;;;;;5061009;28;20120;-65
2021/05/11 10:57:36;;;;;;;13.38;2.92;;;;;;;;;;5058867;28;20581;-65
2021/05/11 11:03:16;;;;;;;8.70;2.63;;;;;;;;;;5067749;28;20036;-65
2021/05/11 11:05:57;;;;;;;9.50;2.75;;;;;;;;;;5061762;28;20032;-65
2021/05/11 11:08:34;;;;;;;6.07;2.35;;;;;;;;;;5070061;28;20020;-64
2021/05/11 11:11:12;;;;;;;6.15;2.47;;;;;;;;;;5062897;28;20040;-66
2021/05/11 11:13:49;;;;;;;5.07;2.58;;;;;;;;;;5059783;28;20013;-64
2021/05/11 11:16:17;;;;;;;19.40;3.28;;;;;;;;;;5065022;28;20032;-64
2021/05/11 11:18:44;;;;;;;41.70;3.78;;;;;;;;;;5067316;28;20055;-66
2021/05/11 11:23:49;;;;;;;91.15;9.98;;;;;;;;;;5064244;28;20040;-66
2021/05/11 11:26:44;;;;;;;30.42;3.65;;;;;;;;;;5065480;28;20033;-69
2021/05/11 11:29:12;;;;;;;39.85;4.15;;;;;;;;;;5064754;28;20048;-67
2021/05/11 11:31:40;;;;;;;16.95;2.83;;;;;;;;;;5067389;28;20492;-70
2021/05/11 11:34:19;;;;;;;18.92;1.92;;;;;;;;;;5068855;28;20025;-66
2021/05/11 11:36:58;;;;;;;10.75;2.10;;;;;;;;;;5065884;28;20024;-67
2021/05/11 11:39:26;;;;;;;8.60;1.85;;;;;;;;;;5064722;28;20048;-67
2021/05/11 11:41:57;;;;;;;19.63;2.60;;;;;;;;;;5055207;28;20021;-64
2021/05/11 11:44:28;;;;;;;16.63;3.33;;;;;;;;;;5064425;28;20025;-66
2021/05/11 11:46:58;;;;;;;18.00;3.30;;;;;;;;;;5067017;28;20039;-59
2021/05/11 11:49:26;;;;;;;58.80;5.03;;;;;;;;;;5067105;28;20027;-62
2021/05/11 11:52:05;;;;;;;45.95;5.82;;;;;;;;;;5063411;28;20139;-59
2021/05/11 11:54:45;;;;;;;75.28;6.45;;;;;;;;;;5069585;28;20234;-63
2021/05/11 12:00:09;;;;;;;67.85;7.00;;;;;;;;;;5068802;28;20035;-66
2021/05/11 12:02:37;;;;;;;47.60;6.53;;;;;;;;;;5066743;28;20028;-62
2021/05/11 12:05:11;;;;;;;55.58;6.20;;;;;;;;;;5067994;28;20074;-60
2021/05/11 12:07:55;;;;;;;44.22;5.75;;;;;;;;;;5069526;28;20415;-60
2021/05/11 12:10:22;;;;;;;41.83;5.25;;;;;;;;;;5070754;28;20376;-62
2021/05/11 12:12:49;;;;;;;44.80;5.32;;;;;;;;;;5061663;28;20025;-66
2021/05/11 12:15:22;;;;;;;40.42;5.00;;;;;;;;;;5068638;28;20070;-69
2021/05/11 12:18:14;;;;;;;35.75;4.85;;;;;;;;;;5069412;28;20025;-68
2021/05/11 12:20:41;;;;;;;36.85;5.47;;;;;;;;;;5071322;28;20032;-60
2021/05/11 12:23:19;;;;;;;38.15;5.28;;;;;;;;;;5066512;28;20044;-59
2021/05/11 12:25:59;;;;;;;36.05;4.60;;;;;;;;;;5071455;28;20465;-59
2021/05/11 12:28:32;;;;;;;32.45;4.53;;;;;;;;;;5061588;28;20090;-60
2021/05/11 12:30:59;;;;;;;38.35;4.63;;;;;;;;;;5068635;28;20036;-59
2021/05/11 12:33:33;;;;;;;29.15;4.28;;;;;;;;;;5068992;28;20419;-63
2021/05/11 12:36:03;;;;;;;29.00;4.40;;;;;;;;;;5070217;28;20472;-59
2021/05/11 12:38:32;;;;;;;36.70;5.28;;;;;;;;;;5065954;28;20032;-60
2021/05/11 12:43:38;;;;;;;35.80;4.00;;;;;;;;;;5060053;28;20166;-61
2021/05/11 12:46:14;;;;;;;40.33;4.05;;;;;;;;;;5069609;28;20115;-60
2021/05/11 12:48:57;;;;;;;32.35;3.95;;;;;;;;;;5070908;28;20028;-68
2021/05/11 12:51:35;;;;;;;42.45;4.93;;;;;;;;;;5067759;28;20074;-63
2021/05/11 12:54:04;;;;;;;24.90;3.65;;;;;;;;;;5068859;28;20022;-57
2021/05/11 12:56:52;;;;;;;23.65;3.85;;;;;;;;;;5071170;28;20097;-63
2021/05/11 12:59:29;;;;;;;29.35;3.45;;;;;;;;;;5064564;28;20068;-60
2021/05/11 13:02:44;;;;;;;25.15;3.10;;;;;;;;;;5068786;28;20033;-66
2021/05/11 13:25:09;;;;;;;26.48;3.65;;;;;;;;;;5061609;28;20037;-65
2021/05/11 13:26:21;;;;;;;23.60;3.05;;;;;;;;;;5057320;28;20040;-61
2021/05/11 13:31:46;;;;;;;30.30;3.75;;;;;;;;;;5062145;28;20036;-61
2021/05/11 13:34:14;;;;;;;29.60;2.95;;;;;;;;;;5067154;28;20104;-64
2021/05/11 13:36:42;;;;;;;24.95;3.00;;;;;;;;;;5058996;28;20376;-64
2021/05/11 13:39:10;;;;;;;21.17;3.60;;;;;;;;;;5059344;28;20037;-66
2021/05/11 13:41:37;;;;;;;83.85;7.65;;;;;;;;;;5057816;28;20074;-61
2021/05/11 13:44:04;;;;;;;25.80;3.75;;;;;;;;;;5063166;28;20032;-63
2021/05/11 13:46:32;;;;;;;31.95;4.38;;;;;;;;;;5058575;28;20530;-64
2021/05/11 13:48:59;;;;;;;35.63;3.95;;;;;;;;;;5059999;28;20061;-67
2021/05/11 13:51:26;;;;;;;30.55;3.42;;;;;;;;;;5058449;28;20025;-67
2021/05/11 13:54:00;;;;;;;34.33;4.15;;;;;;;;;;5061381;28;20040;-66
2021/05/11 14:02:28;;;;;;;28.88;3.65;;;;;;;;;;5056112;28;20099;-62
2021/05/11 14:04:55;;;;;;;23.15;2.95;;;;;;;;;;5069322;28;20448;-60
2021/05/11 14:07:22;;;;;;;29.08;4.68;;;;;;;;;;5061768;28;20071;-59
2021/05/11 14:09:49;;;;;;;13.20;2.90;;;;;;;;;;5058039;28;20025;-60
2021/05/11 14:12:16;;;;;;;20.15;3.20;;;;;;;;;;5063451;28;20021;-60
2021/05/11 14:14:43;;;;;;;18.17;3.58;;;;;;;;;;5055051;28;20028;-56
2021/05/11 14:17:10;;;;;;;21.67;3.30;;;;;;;;;;5064985;28;20496;-60
2021/05/11 14:19:37;;;;;;;12.75;2.60;;;;;;;;;;5059036;28;20036;-57
2021/05/11 14:22:04;;;;;;;16.00;2.55;;;;;;;;;;5062266;28;20115;-64
2021/05/11 14:24:31;;;;;;;22.10;3.08;;;;;;;;;;5064141;28;20025;-62
2021/05/11 14:26:58;;;;;;;22.48;3.75;;;;;;;;;;5056053;28;20029;-66
2021/05/11 14:29:25;;;;;;;19.92;2.90;;;;;;;;;;5059004;28;20021;-64
2021/05/11 14:31:52;;;;;;;19.83;3.38;;;;;;;;;;5060556;28;20085;-60
2021/05/11 14:34:21;;;;;;;15.93;3.13;;;;;;;;;;5055107;28;20025;-61
2021/05/11 14:36:48;;;;;;;17.88;3.15;;;;;;;;;;5060972;28;20032;-62
2021/05/11 14:39:15;;;;;;;17.77;3.08;;;;;;;;;;5057224;28;20108;-72
2021/05/11 14:41:42;;;;;;;25.80;3.08;;;;;;;;;;5063138;28;20626;-63
2021/05/11 14:44:09;;;;;;;14.07;2.83;;;;;;;;;;5067202;28;20021;-65
2021/05/11 14:46:36;;;;;;;27.20;3.67;;;;;;;;;;5064396;28;20020;-64
2021/05/11 14:49:04;;;;;;;13.65;2.95;;;;;;;;;;5061511;28;20038;-64
2021/05/11 14:51:31;;;;;;;19.95;2.92;;;;;;;;;;5055020;28;20139;-64
2021/05/11 14:53:58;;;;;;;17.35;3.20;;;;;;;;;;5054583;28;20484;-62
2021/05/11 14:56:25;;;;;;;12.32;2.50;;;;;;;;;;5060655;28;20107;-63
2021/05/11 14:58:53;;;;;;;13.88;2.53;;;;;;;;;;5056776;28;20053;-74
2021/05/11 15:01:20;;;;;;;17.85;2.25;;;;;;;;;;5062738;28;20021;-66
2021/05/11 15:03:47;;;;;;;17.48;2.65;;;;;;;;;;5064825;28;20044;-68
2021/05/11 15:06:14;;;;;;;14.93;2.30;;;;;;;;;;5068840;28;20025;-66
2021/05/11 15:08:41;;;;;;;17.35;2.55;;;;;;;;;;5061199;28;20440;-62
2021/05/11 15:11:08;;;;;;;20.85;3.28;;;;;;;;;;5061062;28;20028;-67
2021/05/11 15:13:36;;;;;;;24.55;2.53;;;;;;;;;;5064937;28;20434;-64
2021/05/11 15:16:07;;;;;;;23.08;2.55;;;;;;;;;;5056148;28;20052;-66
2021/05/11 15:18:34;;;;;;;19.42;2.72;;;;;;;;;;5068454;28;20035;-68
2021/05/11 15:21:01;;;;;;;17.25;2.40;;;;;;;;;;5067318;28;20021;-71
2021/05/11 15:23:28;;;;;;;17.25;2.72;;;;;;;;;;5058953;28;20037;-75
2021/05/11 15:25:55;;;;;;;20.42;2.42;;;;;;;;;;5064944;28;20472;-71
2021/05/11 15:28:22;;;;;;;25.00;2.80;;;;;;;;;;5063158;28;20028;-75
2021/05/11 15:30:49;;;;;;;21.63;3.03;;;;;;;;;;5063107;28;20025;-75
2021/05/11 15:33:16;;;;;;;18.65;2.63;;;;;;;;;;5065460;28;20021;-74
2021/05/11 15:35:43;;;;;;;12.10;2.50;;;;;;;;;;5064570;28;20024;-68
2021/05/11 15:38:10;;;;;;;12.02;2.45;;;;;;;;;;5063150;28;20396;-75
2021/05/11 15:40:38;;;;;;;24.00;3.15;;;;;;;;;;5066535;28;20024;-75
2021/05/11 15:43:06;;;;;;;21.25;3.15;;;;;;;;;;5069216;28;20055;-73
2021/05/11 15:45:33;;;;;;;28.30;3.60;;;;;;;;;;5061808;28;20028;-71
2021/05/11 15:48:06;;;;;;;40.70;4.28;;;;;;;;;;5061138;28;20438;-70
2021/05/11 15:50:34;;;;;;;36.25;4.90;;;;;;;;;;5062855;28;20036;-74
2021/05/11 15:53:02;;;;;;;26.80;4.70;;;;;;;;;;5066793;28;20024;-75
2021/05/11 15:55:33;;;;;;;46.65;5.93;;;;;;;;;;5066725;28;20033;-73
2021/05/11 15:58:01;;;;;;;37.10;6.32;;;;;;;;;;5067732;28;20404;-72
2021/05/11 16:00:29;;;;;;;39.60;6.72;;;;;;;;;;5066446;28;20450;-75
2021/05/11 16:02:58;;;;;;;42.97;7.40;;;;;;;;;;5064224;28;20024;-75
2021/05/11 16:05:25;;;;;;;37.25;7.20;;;;;;;;;;5066431;28;20029;-72
2021/05/11 16:07:52;;;;;;;38.13;7.72;;;;;;;;;;5066113;28;20043;-71
2021/05/11 16:10:19;;;;;;;65.07;7.80;;;;;;;;;;5066448;28;20424;-67
2021/05/11 16:12:46;;;;;;;44.05;7.40;;;;;;;;;;5063948;28;20179;-68
2021/05/11 16:15:15;;;;;;;45.33;8.55;;;;;;;;;;5052727;28;20091;-68
2021/05/11 16:17:42;;;;;;;48.22;7.65;;;;;;;;;;5063771;28;20036;-62
2021/05/11 16:20:10;;;;;;;59.00;8.50;;;;;;;;;;5065761;28;20054;-69
2021/05/11 16:22:40;;;;;;;69.57;8.85;;;;;;;;;;5063854;28;20076;-67
2021/05/11 16:25:11;;;;;;;68.90;7.63;;;;;;;;;;5081061;28;20040;-58
2021/05/11 16:27:42;;;;;;;50.83;7.10;;;;;;;;;;5061719;28;20469;-59
2021/05/11 16:30:14;;;;;;;41.00;7.15;;;;;;;;;;5064417;28;20025;-58
2021/05/11 16:32:44;;;;;;;59.20;7.82;;;;;;;;;;5064409;28;20051;-61
2021/05/11 16:35:16;;;;;;;54.03;6.63;;;;;;;;;;5065095;28;20472;-58
2021/05/11 16:37:48;;;;;;;42.90;6.88;;;;;;;;;;5066097;28;20051;-58
2021/05/11 16:40:17;;;;;;;58.93;7.13;;;;;;;;;;5058392;28;20451;-56
2021/05/11 16:42:47;;;;;;;40.60;6.13;;;;;;;;;;5071735;28;20286;-56
2021/05/11 16:45:17;;;;;;;42.17;6.30;;;;;;;;;;5065213;28;20094;-58
2021/05/11 16:47:56;;;;;;;51.13;6.75;;;;;;;;;;5052255;28;20037;-57
2021/05/11 16:50:27;;;;;;;76.75;6.28;;;;;;;;;;5067201;28;20017;-59
2021/05/11 16:52:56;;;;;;;76.30;5.83;;;;;;;;;;5067308;28;20056;-60
2021/05/11 16:55:24;;;;;;;54.05;5.10;;;;;;;;;;5068860;28;20330;-58
2021/05/11 16:57:51;;;;;;;64.97;5.43;;;;;;;;;;5071320;28;20035;-55
2021/05/11 17:00:22;;;;;;;67.05;5.50;;;;;;;;;;5061301;28;20484;-60
2021/05/11 17:02:55;;;;;;;49.65;4.90;;;;;;;;;;5061915;28;20028;-56
2021/05/11 17:05:23;;;;;;;60.80;4.88;;;;;;;;;;5066680;28;20043;-58
2021/05/11 17:07:51;;;;;;;69.65;4.50;;;;;;;;;;5063565;28;20025;-63
2021/05/11 17:10:18;;;;;;;36.63;3.40;;;;;;;;;;5069794;28;20633;-62
2021/05/11 17:12:45;;;;;;;43.03;3.97;;;;;;;;;;5063646;28;20397;-65
2021/05/11 17:15:13;;;;;;;67.10;6.78;;;;;;;;;;5065484;28;20380;-57
2021/05/11 17:17:40;;;;;;;81.55;5.35;;;;;;;;;;5065672;28;20035;-66
2021/05/11 17:20:07;;;;;;;42.95;4.68;;;;;;;;;;5066975;28;20025;-61
2021/05/11 17:22:34;;;;;;;39.00;3.33;;;;;;;;;;5061401;28;20097;-61
2021/05/11 17:25:02;;;;;;;50.67;3.80;;;;;;;;;;5065723;28;20025;-61
2021/05/11 17:27:30;;;;;;;81.03;6.40;;;;;;;;;;5069748;28;20476;-62
2021/05/11 17:29:58;;;;;;;82.40;6.35;;;;;;;;;;5060012;28;20045;-60
2021/05/11 17:32:25;;;;;;;64.22;5.47;;;;;;;;;;5063517;28;20028;-60
2021/05/11 17:34:53;;;;;;;59.80;5.80;;;;;;;;;;5069780;28;20028;-59
2021/05/11 17:37:21;;;;;;;58.75;4.43;;;;;;;;;;5063098;28;20020;-61
2021/05/11 17:39:48;;;;;;;63.58;4.25;;;;;;;;;;5060531;28;20405;-63
2021/05/11 17:42:15;;;;;;;28.85;2.15;;;;;;;;;;5066802;28;20032;-63
2021/05/11 17:44:43;;;;;;;38.17;2.70;;;;;;;;;;5064954;28;20095;-65
2021/05/11 17:47:12;;;;;;;31.50;2.33;;;;;;;;;;5066044;28;20059;-59
2021/05/11 17:49:40;;;;;;;20.23;1.58;;;;;;;;;;5066902;28;20024;-59
2021/05/11 17:52:07;;;;;;;14.32;1.23;;;;;;;;;;5065803;28;20090;-60
2021/05/11 17:54:34;;;;;;;10.48;0.95;;;;;;;;;;5065966;28;20075;-59
2021/05/11 17:57:02;;;;;;;22.30;2.63;;;;;;;;;;5064775;28;20096;-61
2021/05/11 17:59:29;;;;;;;27.52;3.35;;;;;;;;;;5062545;28;20041;-61
2021/05/11 18:01:56;;;;;;;15.70;2.30;;;;;;;;;;5065931;28;20807;-60
2021/05/11 18:04:23;;;;;;;22.27;2.42;;;;;;;;;;5062580;28;20053;-61
2021/05/11 18:06:52;;;;;;;24.23;1.70;;;;;;;;;;5068857;28;20095;-61
2021/05/11 18:09:19;;;;;;;26.15;1.70;;;;;;;;;;5068092;28;20493;-63
2021/05/11 18:11:46;;;;;;;17.48;1.92;;;;;;;;;;5065907;28;20021;-63
2021/05/11 18:14:13;;;;;;;28.90;2.25;;;;;;;;;;5069865;28;20025;-62
2021/05/11 18:16:40;;;;;;;23.73;3.20;;;;;;;;;;5065611;28;20021;-61
2021/05/11 18:19:07;;;;;;;14.95;1.67;;;;;;;;;;5064020;28;20041;-65
2021/05/11 18:21:34;;;;;;;21.60;2.25;;;;;;;;;;5065510;28;20653;-62
2021/05/11 18:24:01;;;;;;;18.38;1.65;;;;;;;;;;5066894;28;20116;-63
2021/05/11 18:26:29;;;;;;;20.98;2.20;;;;;;;;;;5061275;28;20044;-67
2021/05/11 18:28:56;;;;;;;21.77;1.83;;;;;;;;;;5064169;28;20369;-65
2021/05/11 18:31:23;;;;;;;25.83;1.95;;;;;;;;;;5063476;28;20071;-67
2021/05/11 18:33:50;;;;;;;23.00;1.77;;;;;;;;;;5064698;28;20037;-66
2021/05/11 18:36:26;;;;;;;13.82;1.50;;;;;;;;;;5064449;28;20025;-64
2021/05/11 18:38:57;;;;;;;22.95;2.30;;;;;;;;;;5057963;28;20055;-62
2021/05/11 18:41:24;;;;;;;24.90;2.17;;;;;;;;;;5064854;28;20090;-66
2021/05/11 18:43:51;;;;;;;21.00;2.30;;;;;;;;;;5068497;28;20040;-61
2021/05/11 18:46:18;;;;;;;20.45;2.20;;;;;;;;;;5066694;28;20476;-67
2021/05/11 18:48:45;;;;;;;40.55;3.35;;;;;;;;;;5060671;28;20047;-64